createdAt,value
2022-11-06T00:04:55.008Z,17.4
2022-11-06T00:10:01.344Z,17.4
2022-11-06T00:15:07.029Z,17.3
2022-11-06T00:20:14.437Z,17.4
2022-11-06T00:25:21.503Z,17.3
2022-11-06T00:30:48.374Z,17.3
2022-11-06T00:35:54.582Z,17.3
2022-11-06T00:41:15.519Z,17.3
2022-11-06T00:46:36.955Z,17.3
2022-11-06T00:52:00.565Z,17.3
2022-11-06T00:57:22.534Z,17.3
2022-11-06T01:02:45.584Z,17.3
2022-11-06T01:08:08.400Z,17.3
2022-11-06T01:13:57.464Z,17.3
2022-11-06T01:19:18.904Z,17.3
2022-11-06T01:24:41.576Z,17.3
2022-11-06T01:30:46.017Z,17.3
2022-11-06T01:35:52.713Z,17.3
2022-11-06T01:41:14.574Z,17.3
2022-11-06T01:46:56.629Z,17.3
2022-11-06T01:52:17.808Z,17.3
2022-11-06T01:57:40.550Z,17.3
2022-11-06T02:03:04.652Z,17.3
2022-11-06T02:08:10.276Z,17.3
2022-11-06T02:13:47.955Z,17.3
2022-11-06T02:19:25.096Z,17.3
2022-11-06T02:25:01.040Z,17.3
2022-11-06T02:30:22.928Z,17.3
2022-11-06T02:35:44.813Z,17.3
2022-11-06T02:41:06.480Z,17.3
2022-11-06T02:46:43.800Z,17.3
2022-11-06T02:52:21.341Z,17.3
2022-11-06T02:57:42.862Z,17.3
2022-11-06T03:03:06.515Z,17.3
2022-11-06T03:08:29.739Z,17.3
2022-11-06T03:14:06.017Z,17.3
2022-11-06T03:19:43.941Z,17.3
2022-11-06T03:25:21.674Z,17.3
2022-11-06T03:30:33.479Z,17.3
2022-11-06T03:35:55.153Z,17.3
2022-11-06T03:41:33.159Z,17.3
2022-11-06T03:47:08.573Z,17.3
2022-11-06T03:52:45.372Z,17.3
2022-11-06T03:58:23.300Z,17.3
2022-11-06T04:04:01.774Z,17.3
2022-11-06T04:09:24.357Z,17.3
2022-11-06T04:14:46.482Z,17.3
2022-11-06T04:19:52.222Z,17.3
2022-11-06T04:25:29.907Z,17.3
2022-11-06T04:31:07.557Z,17.3
2022-11-06T04:36:15.334Z,17.3
2022-11-06T04:41:37.323Z,17.3
2022-11-06T04:46:59.913Z,17.3
2022-11-06T04:52:21.323Z,17.3
2022-11-06T04:58:08.607Z,17.3
2022-11-06T05:03:30.696Z,17.3
2022-11-06T05:09:11.868Z,17.3
2022-11-06T05:14:48.940Z,17.3
2022-11-06T05:20:27.206Z,17.3
2022-11-06T05:26:03.376Z,17.3
2022-11-06T05:31:47.737Z,17.3
2022-11-06T05:37:24.398Z,17.3
2022-11-06T05:43:01.380Z,17.3
2022-11-06T05:49:03.859Z,17.3
2022-11-06T05:54:41.051Z,17.3
2022-11-06T06:00:03.698Z,17.3
2022-11-06T06:05:42.403Z,17.3
2022-11-06T06:11:20.086Z,17.3
2022-11-06T06:17:03.984Z,17.3
2022-11-06T06:22:42.161Z,17.3
2022-11-06T06:28:10.833Z,17.3
2022-11-06T06:33:48.592Z,17.3
2022-11-06T06:39:16.238Z,17.3
2022-11-06T06:45:00.755Z,17.3
2022-11-06T06:50:38.616Z,17.2
2022-11-06T06:56:16.466Z,17.3
2022-11-06T07:01:55.727Z,17.3
2022-11-06T07:07:24.468Z,17.3
2022-11-06T07:13:02.900Z,17.3
2022-11-06T07:18:41.176Z,17.3
2022-11-06T07:24:11.682Z,17.3
2022-11-06T07:29:34.468Z,17.3
2022-11-06T07:34:56.624Z,17.3
2022-11-06T07:40:18.617Z,17.3
2022-11-06T07:45:46.527Z,17.3
2022-11-06T07:50:59.231Z,17.3
2022-11-06T07:56:21.383Z,17.3
2022-11-06T08:01:48.133Z,17.3
2022-11-06T08:06:55.489Z,17.3
2022-11-06T08:12:18.808Z,17.3
2022-11-06T08:17:44.740Z,17.3
2022-11-06T08:23:08.042Z,17.3
2022-11-06T08:28:37.062Z,17.3
2022-11-06T08:34:00.703Z,17.3
2022-11-06T08:39:09.493Z,17.3
2022-11-06T08:44:18.203Z,17.3
2022-11-06T08:49:43.542Z,17.3
2022-11-06T08:55:24.440Z,17.3
2022-11-06T09:01:09.860Z,17.3
2022-11-06T09:06:55.996Z,17.3
2022-11-06T09:12:40.564Z,17.4
2022-11-06T09:18:09.407Z,17.5
2022-11-06T09:23:36.930Z,17.5
2022-11-06T09:29:41.340Z,17.6
2022-11-06T09:35:11.411Z,17.6
2022-11-06T09:40:56.640Z,18.1
2022-11-06T09:47:08.016Z,18.6
2022-11-06T09:52:48.296Z,18.9
2022-11-06T09:58:35.933Z,19.1
2022-11-06T10:04:22.145Z,19.5
2022-11-06T10:10:00.722Z,19.9
2022-11-06T10:15:38.045Z,20.1
2022-11-06T10:21:18.052Z,20.9
2022-11-06T10:26:56.065Z,28.1
2022-11-06T10:32:33.783Z,30.1
2022-11-06T10:38:15.293Z,29.5
2022-11-06T10:43:52.172Z,29.2
2022-11-06T10:49:35.343Z,28.1
2022-11-06T10:55:12.958Z,26.9
2022-11-06T11:00:55.752Z,26.2
2022-11-06T11:06:39.357Z,25.6
2022-11-06T11:12:13.259Z,25.1
2022-11-06T11:17:41.170Z,25.6
2022-11-06T11:23:07.431Z,25.9
2022-11-06T11:28:32.141Z,25.9
2022-11-06T11:33:54.610Z,26.1
2022-11-06T11:39:23.057Z,26
2022-11-06T11:44:46.941Z,25.7
2022-11-06T11:50:28.794Z,25.3
2022-11-06T11:56:12.854Z,24.9
2022-11-06T12:02:27.484Z,24.3
2022-11-06T12:08:06.610Z,24.5
2022-11-06T12:13:28.638Z,24.9
2022-11-06T12:18:56.093Z,24.9
2022-11-06T12:24:36.148Z,24.9
2022-11-06T12:30:13.797Z,24.7
2022-11-06T12:36:20.341Z,24.5
2022-11-06T12:42:04.090Z,24.2
2022-11-06T12:47:43.948Z,23.5
2022-11-06T12:53:06.542Z,24.1
2022-11-06T12:58:28.549Z,23.4
2022-11-06T13:04:08.737Z,23.4
2022-11-06T13:09:33.708Z,23.1
2022-11-06T13:15:12.594Z,22.8
2022-11-06T13:20:50.895Z,23.1
2022-11-06T13:26:30.517Z,23.5
2022-11-06T13:32:08.530Z,23.5
2022-11-06T13:37:45.533Z,23
2022-11-06T13:43:07.789Z,22.6
2022-11-06T13:48:50.775Z,22.5
2022-11-06T13:53:41.918Z,23.1
2022-11-06T13:59:06.830Z,23.3
2022-11-06T14:04:50.927Z,23
2022-11-06T14:10:30.842Z,23.1
2022-11-06T14:16:08.752Z,22.8
2022-11-06T14:21:47.831Z,23.2
2022-11-06T14:27:31.111Z,22.8
2022-11-06T14:33:44.100Z,22.8
2022-11-06T14:39:11.201Z,22.8
2022-11-06T14:44:53.794Z,22.7
2022-11-06T14:50:34.048Z,22.9
2022-11-06T14:56:13.266Z,22.4
2022-11-06T15:01:52.879Z,22.4
2022-11-06T15:08:03.677Z,22.5
2022-11-06T15:13:45.647Z,22.6
2022-11-06T15:19:14.007Z,22.8
2022-11-06T15:24:05.474Z,23
2022-11-06T15:29:43.107Z,22.8
2022-11-06T15:35:05.869Z,22.7
2022-11-06T15:40:34.697Z,22.5
2022-11-06T15:46:12.780Z,22.3
2022-11-06T15:51:50.616Z,22.3
2022-11-06T15:57:37.830Z,23
2022-11-06T16:03:20.730Z,23.3
2022-11-06T16:09:04.316Z,23.4
2022-11-06T16:14:48.672Z,23.2
2022-11-06T16:20:30.890Z,22.9
2022-11-06T16:25:43.340Z,22.8
2022-11-06T16:30:41.266Z,22.6
2022-11-06T16:36:22.835Z,22.6
2022-11-06T16:42:35.448Z,22.5
2022-11-06T16:48:13.135Z,22.4
2022-11-06T16:53:36.204Z,22.3
2022-11-06T16:58:58.931Z,22.2
2022-11-06T17:04:26.598Z,22.1
2022-11-06T17:09:48.961Z,21.9
2022-11-06T17:15:11.168Z,21.7
2022-11-06T17:20:49.173Z,21.6
2022-11-06T17:26:35.228Z,21.5
2022-11-06T17:31:58.056Z,21.4
2022-11-06T17:37:20.365Z,21.3
2022-11-06T17:42:57.946Z,21.3
2022-11-06T17:48:05.150Z,21
2022-11-06T17:53:33.736Z,20.8
2022-11-06T17:59:01.058Z,20.8
2022-11-06T18:05:15.821Z,20.6
2022-11-06T18:10:53.310Z,20.4
2022-11-06T18:16:30.807Z,20.4
2022-11-06T18:21:06.493Z,20.3
2022-11-06T18:25:57.923Z,20.3
2022-11-06T18:31:24.391Z,20.2
2022-11-06T18:37:07.307Z,20.1
2022-11-06T18:42:49.253Z,20.1
2022-11-06T18:48:12.426Z,20
2022-11-06T18:54:36.697Z,19.9
2022-11-06T19:00:20.151Z,19.9
2022-11-06T19:06:06.675Z,19.8
2022-11-06T19:11:33.916Z,19.8
2022-11-06T19:17:11.373Z,19.8
2022-11-06T19:22:46.521Z,19.7
2022-11-06T19:28:53.136Z,19.6
2022-11-06T19:34:32.155Z,19.6
2022-11-06T19:39:54.084Z,19.6
2022-11-06T19:45:31.898Z,19.5
2022-11-06T19:51:44.431Z,19.5
2022-11-06T19:59:08.910Z,19.4
2022-11-06T20:04:32.170Z,19.4
2022-11-06T20:10:01.643Z,19.4
2022-11-06T20:15:41.704Z,19.4
2022-11-06T20:21:09.729Z,19.3
2022-11-06T20:26:32.674Z,19.3
2022-11-06T20:32:18.968Z,19.3
2022-11-06T20:37:57.573Z,19.3
2022-11-06T20:43:37.991Z,19.3
2022-11-06T20:49:01.726Z,19.3
2022-11-06T20:55:20.939Z,19.2
2022-11-06T21:00:59.525Z,19.2
2022-11-06T21:06:07.324Z,19.1
2022-11-06T21:11:29.785Z,19.1
2022-11-06T21:16:52.287Z,19.1
2022-11-06T21:22:19.663Z,19.1
2022-11-06T21:27:44.145Z,19.1
2022-11-06T21:33:13.984Z,19.1
2022-11-06T21:38:42.774Z,19.1
2022-11-06T21:44:10.164Z,19
2022-11-06T21:49:43.331Z,19
2022-11-06T21:55:05.530Z,19
2022-11-06T22:00:15.643Z,18.9
2022-11-06T22:05:54.773Z,18.9
2022-11-06T22:11:38.937Z,18.9
2022-11-06T22:17:01.579Z,18.9
2022-11-06T22:22:08.269Z,18.9
2022-11-06T22:29:57.067Z,18.9
2022-11-06T22:35:04.147Z,18.9
2022-11-06T22:40:41.900Z,18.9
2022-11-06T22:46:25.649Z,18.8
2022-11-06T22:52:03.318Z,18.8
2022-11-06T22:57:25.409Z,18.8
2022-11-06T23:03:07.377Z,18.8
2022-11-06T23:08:47.052Z,18.8
2022-11-06T23:14:26.867Z,18.8
2022-11-06T23:46:19.496Z,18.6
2022-11-06T23:51:44.042Z,18.6
2022-11-06T23:57:06.446Z,18.6
